Suffolk, VA (23433)

6:16 PM EDT on August 31, 2015 (GMT -0400)
Eclipse Chuckatuck Creek | | Change Station
CLOSE
Current Station
Personal Weather Station
Location: Suffolk, VA
Elevation: 35 ft
Nearby Weather Stations

Elev 35 ft 36.92 °N, 76.49 °W | Updated 11 minutes ago

Overcast
Overcast
78.3 °F
Feels Like 81 °F
N
0.0
Wind Variable Wind from South
Gusts 4.0 mph

Today
High -- | Low -- °F
--% Chance of Precip.
Yesterday
High -- | Low -- °F
Precip. -- in
6:35 AM 7:36 PM
Waning Gibbous, 93% visible
Pressure 30.09 in
Visibility 10.0 miles
Clouds Overcast 4700 ft
Heat Index 81 °F
Dew Point 70 °F
Humidity 76%
Rainfall 0.09 in
Snow Depth Not available.
UV 0 out of 12
Pollen 8.10 out of 12
Air Quality Not available.
Flu Activity Not available.
METAR KSFQ 312155Z AUTO 10003KT 10SM OVC047 24/23 A3009 RMK AO2 T02350231
Pressure 30.09 in
Visibility 10.0 miles
Clouds Overcast 4700 ft
Heat Index 81 °F
Dew Point 70 °F
Humidity 76%
Rainfall 0.09 in
Snow Depth Not available.
UV 0 out of 12
Pollen 8.10 out of 12
Air Quality Not available.
Flu Activity Not available.
METAR KSFQ 312155Z AUTO 10003KT 10SM OVC047 24/23 A3009 RMK AO2 T02350231

10-Day Weather Forecast

×

Almanac

Astronomy

Aug. 31, 2015 Rise Set
Actual Time
Civil Twilight
Nautical Twilight
Astronomical Twilight
Moon
Length of Visible Light
Length of Day
Tomorrow will be .
, % of the Moon is Illuminated

Today's Extremes

State Highs State Lows

Community

WunderPhotos

Upload Photos

1,851,389 photos uploaded!

WunderBlogs® & News

Nearby

Air Quality

  Air Quality AQ Index Pollutant
Not available.

Snow Depth

Station Depth Elevation

Earthquake Activity

City Distance Mag. Time & Date
Minimum magnitude displayed is 2.5.

Coastal Water Temperatures

Place Temperature

Stations

Nearby Weather Stations

Station Location Temp. Windchill Dew Point Humidity Wind Precip. Elev Updated Type